Time;durP1;ratioP1;P1;durP2;ratioP2;P2;SDS_P1;SDS_P2;PMS_P1;PMS_P2;Temp;Humidity;BMP_temperature;BMP_pressure;BME280_temperature;BME280_humidity;BME280_pressure;Samples;Min_cycle;Max_cycle;Signal;HPM_P1;HPM_P2
2024/01/16 00:00:47;;;;;;;0.10;0.10;;;;;;;;;;5040929;28;20045;-94
2024/01/16 00:03:13;;;;;;;0.10;0.10;;;;;;;;;;5033530;28;20022;-94
2024/01/16 00:05:39;;;;;;;0.00;0.00;;;;;;;;;;5015912;28;20030;-93
2024/01/16 00:08:05;;;;;;;0.10;0.10;;;;;;;;;;5036795;28;20058;-92
2024/01/16 00:10:31;;;;;;;0.10;0.10;;;;;;;;;;5054372;28;20052;-94
2024/01/16 00:12:57;;;;;;;0.00;0.00;;;;;;;;;;5053611;28;20061;-93
2024/01/16 00:15:23;;;;;;;0.10;0.10;;;;;;;;;;5018288;28;20026;-93
2024/01/16 00:17:49;;;;;;;0.10;0.10;;;;;;;;;;5038790;28;20090;-94
2024/01/16 00:20:15;;;;;;;0.05;0.05;;;;;;;;;;5039531;28;20400;-93
2024/01/16 00:22:41;;;;;;;0.00;0.00;;;;;;;;;;5007171;28;20030;-93
2024/01/16 00:25:07;;;;;;;0.00;0.00;;;;;;;;;;5008571;28;20014;-94
2024/01/16 00:27:33;;;;;;;0.10;0.10;;;;;;;;;;5036786;28;20048;-95
2024/01/16 00:29:59;;;;;;;0.05;0.05;;;;;;;;;;5040104;28;20026;-93
2024/01/16 00:32:25;;;;;;;0.10;0.10;;;;;;;;;;5003606;28;20038;-93
2024/01/16 00:34:51;;;;;;;0.10;0.10;;;;;;;;;;5009955;28;20230;-93
2024/01/16 00:37:17;;;;;;;0.00;0.00;;;;;;;;;;5012111;28;20025;-93
2024/01/16 00:39:43;;;;;;;0.00;0.00;;;;;;;;;;5040358;28;20026;-93
2024/01/16 00:42:09;;;;;;;0.00;0.00;;;;;;;;;;5010124;28;20034;-94
2024/01/16 00:44:35;;;;;;;0.00;0.00;;;;;;;;;;5038617;28;20058;-93
2024/01/16 00:47:01;;;;;;;0.10;0.10;;;;;;;;;;5033531;28;20064;-93
2024/01/16 00:49:28;;;;;;;0.10;0.10;;;;;;;;;;5013123;28;20032;-94
2024/01/16 00:51:54;;;;;;;0.10;0.10;;;;;;;;;;5011686;28;20040;-93
2024/01/16 00:54:20;;;;;;;0.10;0.10;;;;;;;;;;5037884;28;20021;-93
2024/01/16 00:56:47;;;;;;;0.10;0.10;;;;;;;;;;5039302;28;20026;-93
2024/01/16 00:59:13;;;;;;;0.10;0.10;;;;;;;;;;5041172;28;20022;-93
2024/01/16 01:01:39;;;;;;;0.10;0.10;;;;;;;;;;5038371;28;20037;-92
2024/01/16 01:04:05;;;;;;;0.05;0.05;;;;;;;;;;5003885;28;20040;-93
2024/01/16 01:06:30;;;;;;;0.10;0.10;;;;;;;;;;5042651;28;20030;-93
2024/01/16 01:08:56;;;;;;;0.10;0.10;;;;;;;;;;5039103;28;20026;-93
2024/01/16 01:11:22;;;;;;;0.00;0.00;;;;;;;;;;4998768;28;20044;-92
2024/01/16 01:13:48;;;;;;;0.08;0.08;;;;;;;;;;5038076;28;20030;-93
2024/01/16 01:16:14;;;;;;;0.00;0.00;;;;;;;;;;5042388;28;20105;-93
2024/01/16 01:18:40;;;;;;;0.10;0.10;;;;;;;;;;5007721;28;20029;-93
2024/01/16 01:21:06;;;;;;;0.10;0.10;;;;;;;;;;5005990;28;20026;-93
2024/01/16 01:23:32;;;;;;;0.10;0.10;;;;;;;;;;5038522;28;20481;-94
2024/01/16 01:25:58;;;;;;;0.00;0.00;;;;;;;;;;5003680;28;20213;-94
2024/01/16 01:28:24;;;;;;;0.10;0.10;;;;;;;;;;5037104;28;20464;-94
2024/01/16 01:30:50;;;;;;;0.10;0.10;;;;;;;;;;5036285;28;20033;-93
2024/01/16 01:33:17;;;;;;;0.00;0.00;;;;;;;;;;5011924;28;20021;-93
2024/01/16 01:35:43;;;;;;;0.10;0.10;;;;;;;;;;5034925;28;20122;-93
2024/01/16 01:38:08;;;;;;;0.10;0.10;;;;;;;;;;5037873;28;20045;-93
2024/01/16 01:40:34;;;;;;;0.10;0.10;;;;;;;;;;5003952;28;20037;-93
2024/01/16 01:43:21;;;;;;;0.10;0.10;;;;;;;;;;5025716;28;20083;-93
2024/01/16 01:45:54;;;;;;;0.10;0.10;;;;;;;;;;5013753;28;20037;-93
2024/01/16 01:48:20;;;;;;;0.10;0.10;;;;;;;;;;4997968;28;20026;-92
2024/01/16 01:50:46;;;;;;;0.00;0.00;;;;;;;;;;5018915;28;20032;-93
2024/01/16 01:53:12;;;;;;;0.10;0.10;;;;;;;;;;5036962;28;20021;-93
2024/01/16 01:55:38;;;;;;;0.10;0.10;;;;;;;;;;5026963;28;20030;-93
2024/01/16 01:58:05;;;;;;;0.10;0.10;;;;;;;;;;5007449;28;20056;-94
2024/01/16 02:00:31;;;;;;;0.10;0.10;;;;;;;;;;5008233;28;20022;-92
2024/01/16 02:02:57;;;;;;;0.00;0.00;;;;;;;;;;5032904;28;20026;-93
2024/01/16 02:05:23;;;;;;;0.10;0.10;;;;;;;;;;5008108;28;20166;-93
2024/01/16 02:07:49;;;;;;;0.00;0.00;;;;;;;;;;5035232;28;20042;-93
2024/01/16 02:10:15;;;;;;;0.10;0.10;;;;;;;;;;5042567;28;20407;-93
2024/01/16 02:12:41;;;;;;;0.10;0.10;;;;;;;;;;5035278;28;20050;-93
2024/01/16 02:15:08;;;;;;;0.10;0.10;;;;;;;;;;5040586;28;20029;-94
2024/01/16 02:17:34;;;;;;;0.10;0.10;;;;;;;;;;5012459;28;20022;-94
2024/01/16 02:20:00;;;;;;;0.10;0.10;;;;;;;;;;5015946;28;20104;-92
2024/01/16 02:22:28;;;;;;;0.10;0.10;;;0.90;99.90;;;;;;5027872;28;20030;-93
2024/01/16 02:24:55;;;;;;;0.00;0.00;;;;;;;;;;5006792;28;20100;-93
2024/01/16 02:27:20;;;;;;;0.10;0.10;;;;;;;;;;5037919;28;20029;-92
2024/01/16 02:29:46;;;;;;;0.10;0.10;;;;;;;;;;5030428;28;20528;-93
2024/01/16 02:32:13;;;;;;;0.00;0.00;;;;;;;;;;5001386;28;20443;-93
2024/01/16 02:34:39;;;;;;;0.10;0.10;;;;;;;;;;5031439;28;20026;-93
2024/01/16 02:37:05;;;;;;;0.10;0.10;;;;;;;;;;5000288;28;20125;-93
2024/01/16 02:39:31;;;;;;;0.00;0.00;;;;;;;;;;5005093;28;20443;-93
2024/01/16 02:41:57;;;;;;;0.10;0.10;;;;;;;;;;5037311;28;20038;-93
2024/01/16 02:44:23;;;;;;;0.00;0.00;;;;;;;;;;5039994;28;20473;-94
2024/01/16 02:46:49;;;;;;;0.10;0.10;;;;;;;;;;5006014;28;20069;-93
2024/01/16 02:49:15;;;;;;;0.10;0.10;;;;;;;;;;5002022;28;20029;-94
2024/01/16 02:51:41;;;;;;;0.10;0.10;;;;;;;;;;5041094;28;20117;-93
2024/01/16 02:54:08;;;;;;;0.10;0.10;;;;;;;;;;5006141;28;20022;-93
2024/01/16 02:56:34;;;;;;;0.10;0.10;;;;;;;;;;5037615;28;20033;-93
2024/01/16 02:59:00;;;;;;;0.10;0.10;;;;;;;;;;5001633;28;20036;-93
2024/01/16 03:01:27;;;;;;;0.00;0.00;;;;;;;;;;5033948;28;20033;-93
2024/01/16 03:03:53;;;;;;;0.10;0.10;;;;;;;;;;5038393;28;20040;-93
2024/01/16 03:06:25;;;;;;;0.10;0.10;;;;;;;;;;5013562;28;20108;-93
2024/01/16 03:08:51;;;;;;;0.00;0.00;;;;;;;;;;5032090;28;20038;-92
2024/01/16 03:11:17;;;;;;;0.10;0.10;;;;;;;;;;5036953;28;20022;-93
2024/01/16 03:13:43;;;;;;;0.10;0.10;;;;;;;;;;5035312;28;20037;-93
2024/01/16 03:16:12;;;;;;;0.10;0.10;;;;;;;;;;5002923;28;20029;-93
2024/01/16 03:18:39;;;;;;;0.10;0.10;;;;;;;;;;5035937;28;20407;-93
2024/01/16 03:21:06;;;;;;;0.10;0.10;;;;;;;;;;5036573;28;20501;-93
2024/01/16 03:23:32;;;;;;;0.10;0.10;;;;;;;;;;5010981;28;20088;-93
2024/01/16 03:25:58;;;;;;;0.10;0.10;;;;;;;;;;5031237;28;20432;-92
2024/01/16 03:28:24;;;;;;;0.10;0.10;;;;;;;;;;5033409;28;20037;-93
2024/01/16 03:30:50;;;;;;;0.00;0.00;;;;;;;;;;5034464;28;20034;-93
2024/01/16 03:33:16;;;;;;;0.08;0.08;;;;;;;;;;5022706;28;20021;-94
2024/01/16 03:35:42;;;;;;;0.10;0.10;;;;;;;;;;5007830;28;20022;-93
2024/01/16 03:38:08;;;;;;;0.10;0.10;;;;;;;;;;5019176;28;20082;-93
2024/01/16 03:40:34;;;;;;;0.00;0.00;;;;;;;;;;5034354;28;20038;-93
2024/01/16 03:43:05;;;;;;;0.00;0.00;;;;;;;;;;5038958;28;20033;-93
2024/01/16 03:45:31;;;;;;;0.00;0.00;;;;;;;;;;5036542;28;20026;-93
2024/01/16 03:47:57;;;;;;;0.10;0.10;;;;;;;;;;5035614;28;20058;-94
2024/01/16 03:50:23;;;;;;;0.10;0.10;;;;;;;;;;5038991;28;20033;-93
2024/01/16 03:52:49;;;;;;;0.00;0.00;;;;;;;;;;5018725;28;20073;-93
2024/01/16 03:55:15;;;;;;;0.10;0.10;;;;;;;;;;5031203;28;20026;-93
2024/01/16 03:57:42;;;;;;;0.10;0.10;;;;;;;;;;5006227;28;20033;-94
2024/01/16 04:00:12;;;;;;;0.10;0.10;;;;;;;;;;5018151;28;20032;-93
2024/01/16 04:02:38;;;;;;;0.08;0.08;;;;;;;;;;5027592;28;20058;-94
2024/01/16 04:05:05;;;;;;;0.10;0.10;;;;;;;;;;5012946;28;20044;-94
2024/01/16 04:07:31;;;;;;;0.08;0.08;;;;;;;;;;5012227;28;20025;-92
2024/01/16 04:09:57;;;;;;;0.00;0.00;;;;;;;;;;5038360;28;20172;-93
2024/01/16 04:12:23;;;;;;;0.10;0.10;;;;;;;;;;5024124;28;20127;-93
2024/01/16 04:14:49;;;;;;;0.10;0.10;;;;;;;;;;5038265;28;20036;-93
2024/01/16 04:17:15;;;;;;;0.00;0.00;;;;;;;;;;5024254;28;20112;-93
2024/01/16 04:19:41;;;;;;;0.00;0.00;;;;;;;;;;5034913;28;20030;-93
2024/01/16 04:22:07;;;;;;;0.10;0.10;;;;;;;;;;5009146;28;20057;-93
2024/01/16 04:24:33;;;;;;;0.00;0.00;;;;;;;;;;5037299;28;20032;-94
2024/01/16 04:26:59;;;;;;;0.00;0.00;;;;;;;;;;5040289;28;20030;-94
2024/01/16 04:29:24;;;;;;;0.00;0.00;;;;;;;;;;5015078;28;20038;-93
2024/01/16 04:31:50;;;;;;;0.05;0.05;;;;;;;;;;5050348;28;20065;-92
2024/01/16 04:34:16;;;;;;;0.00;0.00;;;;;;;;;;5047701;28;20025;-93
2024/01/16 04:36:43;;;;;;;0.00;0.00;;;;;;;;;;5030313;28;20025;-93
2024/01/16 04:39:09;;;;;;;0.10;0.10;;;;;;;;;;5036643;28;20052;-93
2024/01/16 04:41:35;;;;;;;0.00;0.00;;;;;;;;;;5001476;28;20069;-93
2024/01/16 04:44:02;;;;;;;0.00;0.00;;;;;;;;;;5044375;28;20048;-93
2024/01/16 04:46:28;;;;;;;0.08;0.08;;;;;;;;;;5035911;28;20034;-93
2024/01/16 04:48:54;;;;;;;0.10;0.10;;;;;;;;;;5012322;28;20080;-93
2024/01/16 04:51:20;;;;;;;0.10;0.10;;;;;;;;;;5050329;28;20037;-93
2024/01/16 04:53:46;;;;;;;0.10;0.10;;;;;;;;;;5036955;28;20025;-94
2024/01/16 04:56:12;;;;;;;0.10;0.10;;;;;;;;;;5016925;28;20511;-93
2024/01/16 04:58:38;;;;;;;0.10;0.10;;;;;;;;;;5032158;28;20029;-93
2024/01/16 05:01:04;;;;;;;0.00;0.00;;;;;;;;;;5035235;28;20045;-93
2024/01/16 05:03:29;;;;;;;0.10;0.10;;;;;;;;;;5005841;28;20080;-93
2024/01/16 05:05:56;;;;;;;0.10;0.10;;;;;;;;;;5013826;28;20029;-93
2024/01/16 05:08:23;;;;;;;0.10;0.10;;;;;;;;;;5010651;28;20132;-93
2024/01/16 05:10:49;;;;;;;0.00;0.00;;;;;;;;;;5013365;28;20034;-93
2024/01/16 05:13:15;;;;;;;0.10;0.10;;;;;;;;;;5005008;28;20026;-93
2024/01/16 05:15:42;;;;;;;0.10;0.10;;;;;;;;;;5019289;28;20037;-93
2024/01/16 05:18:09;;;;;;;0.10;0.10;;;;;;;;;;5031181;28;20023;-93
2024/01/16 05:20:35;;;;;;;0.05;0.05;;;;;;;;;;5005296;28;20037;-92
2024/01/16 05:23:01;;;;;;;0.00;0.00;;;;;;;;;;5035534;28;20127;-93
2024/01/16 05:25:27;;;;;;;0.00;0.00;;;;;;;;;;5005190;28;20030;-93
2024/01/16 05:27:53;;;;;;;0.10;0.10;;;;;;;;;;5040175;28;20033;-94
2024/01/16 05:30:19;;;;;;;0.10;0.10;;;;;;;;;;5021607;28;20503;-93
2024/01/16 05:32:45;;;;;;;0.10;0.10;;;;;;;;;;4996126;28;20041;-93
2024/01/16 05:35:11;;;;;;;0.10;0.10;;;;;;;;;;4993164;28;20311;-92
2024/01/16 05:37:37;;;;;;;0.10;0.10;;;;;;;;;;5024617;28;20025;-94
2024/01/16 05:40:03;;;;;;;0.10;0.10;;;;;;;;;;5009088;28;20044;-93
2024/01/16 05:42:29;;;;;;;0.10;0.10;;;;;;;;;;5007173;28;20022;-93
2024/01/16 05:44:55;;;;;;;0.03;0.03;;;;;;;;;;5010019;28;20120;-93
2024/01/16 05:47:24;;;;;;;0.10;0.10;;;;;;;;;;5005660;28;20464;-93
2024/01/16 05:49:50;;;;;;;0.03;0.03;;;;;;;;;;5035837;28;20034;-94
2024/01/16 05:52:15;;;;;;;0.05;0.05;;;;;;;;;;5003616;28;20041;-93
2024/01/16 05:54:42;;;;;;;0.00;0.00;;;;;;;;;;5016881;28;20064;-93
2024/01/16 05:57:08;;;;;;;0.00;0.00;;;;;;;;;;5035033;28;20109;-92
2024/01/16 05:59:34;;;;;;;0.00;0.00;;;;;;;;;;5007063;28;20026;-94
2024/01/16 06:02:00;;;;;;;0.00;0.00;;;;;;;;;;5005204;28;20160;-95
2024/01/16 06:04:26;;;;;;;0.10;0.10;;;;;;;;;;5044337;28;20033;-94
2024/01/16 06:06:52;;;;;;;0.10;0.10;;;;;;;;;;5018733;28;20084;-92
2024/01/16 06:09:18;;;;;;;0.00;0.00;;;;;;;;;;5041134;28;20034;-93
2024/01/16 06:11:44;;;;;;;0.00;0.00;;;;;;;;;;5037935;28;20034;-93
2024/01/16 06:14:12;;;;;;;0.10;0.10;;;;;;;;;;5041637;28;20034;-93
2024/01/16 06:16:38;;;;;;;0.03;0.03;;;;;;;;;;5007704;28;20032;-92
2024/01/16 06:19:05;;;;;;;0.03;0.03;;;;;;;;;;5019375;28;20473;-93
2024/01/16 06:21:31;;;;;;;0.00;0.00;;;;;;;;;;5012866;28;20031;-93
2024/01/16 06:23:57;;;;;;;0.10;0.10;;;;;;;;;;5007171;28;20041;-93
2024/01/16 06:26:23;;;;;;;0.10;0.10;;;;;;;;;;5040187;28;20097;-93
2024/01/16 06:29:04;;;;;;;0.10;0.10;;;;;;;;;;5041846;28;20029;-94
2024/01/16 06:31:51;;;;;;;0.10;0.10;;;;;;;;;;5041787;28;20057;-94
2024/01/16 06:34:17;;;;;;;0.10;0.10;;;;;;;;;;5010757;28;20033;-93
2024/01/16 06:36:43;;;;;;;0.10;0.10;;;;;;;;;;5005127;28;20022;-93
2024/01/16 06:39:09;;;;;;;0.10;0.10;;;;;;;;;;5034270;28;20117;-94
2024/01/16 06:41:35;;;;;;;0.00;0.00;;;;;;;;;;5041889;28;20038;-93
2024/01/16 06:44:01;;;;;;;0.10;0.10;;;;;;;;;;5028737;28;20025;-93
2024/01/16 06:46:27;;;;;;;0.10;0.10;;;;;;;;;;5038667;28;20125;-93
2024/01/16 06:48:53;;;;;;;0.10;0.10;;;;;;;;;;5038020;28;20033;-93
2024/01/16 06:51:19;;;;;;;0.10;0.10;;;;;;;;;;5011822;28;20029;-93
2024/01/16 06:53:45;;;;;;;0.00;0.00;;;;;;;;;;5003432;28;20072;-93
2024/01/16 06:56:11;;;;;;;0.00;0.00;;;;;;;;;;5027741;28;20026;-93
2024/01/16 06:58:37;;;;;;;0.10;0.10;;;;;;;;;;5035622;28;20041;-93
2024/01/16 07:01:04;;;;;;;0.05;0.05;;;;;;;;;;5008313;28;20022;-93
2024/01/16 07:03:30;;;;;;;0.10;0.10;;;;;;;;;;5033853;28;20030;-93
2024/01/16 07:05:56;;;;;;;0.10;0.10;;;;;;;;;;5009548;28;20116;-94
2024/01/16 07:08:22;;;;;;;0.10;0.10;;;;;;;;;;5040698;28;20048;-92
2024/01/16 07:10:48;;;;;;;0.10;0.10;;;;;;;;;;5006592;28;20485;-93
2024/01/16 07:13:14;;;;;;;0.10;0.10;;;;;;;;;;5034174;28;20018;-93
2024/01/16 07:15:40;;;;;;;0.10;0.10;;;;;;;;;;5039708;28;20044;-94
2024/01/16 07:18:06;;;;;;;0.10;0.10;;;;;;;;;;5038400;28;20022;-93
2024/01/16 07:20:32;;;;;;;0.10;0.10;;;;;;;;;;5041412;28;20022;-93
2024/01/16 07:22:58;;;;;;;0.10;0.10;;;;;;;;;;5037992;28;20452;-92
2024/01/16 07:25:24;;;;;;;0.08;0.08;;;;;;;;;;5032297;28;20048;-92
2024/01/16 07:27:50;;;;;;;0.00;0.00;;;;;;;;;;5028970;28;20105;-94
2024/01/16 07:30:16;;;;;;;0.05;0.05;;;;;;;;;;5030383;28;20014;-94
2024/01/16 07:32:42;;;;;;;0.00;0.00;;;;;;;;;;5044272;28;20030;-93
2024/01/16 07:35:08;;;;;;;0.10;0.10;;;;;;;;;;5046283;28;20024;-92
2024/01/16 07:37:34;;;;;;;0.10;0.10;;;;;;;;;;5020041;28;20022;-94
2024/01/16 07:40:00;;;;;;;0.10;0.10;;;;;;;;;;5016526;28;20025;-93
2024/01/16 07:42:26;;;;;;;0.10;0.10;;;;;;;;;;5047827;28;20033;-93
2024/01/16 07:44:52;;;;;;;0.10;0.10;;;;;;;;;;5017813;28;20025;-94
2024/01/16 07:47:18;;;;;;;0.10;0.10;;;;;;;;;;5041903;28;20030;-93
2024/01/16 07:49:44;;;;;;;0.10;0.10;;;;;;;;;;5011029;28;20415;-93
2024/01/16 07:52:12;;;;;;;0.10;0.10;;;;;;;;;;5011622;28;20504;-93
2024/01/16 07:54:38;;;;;;;0.00;0.00;;;;;;;;;;5044321;28;20093;-93
2024/01/16 07:57:04;;;;;;;0.10;0.10;;;;;;;;;;5043858;28;20072;-93
2024/01/16 07:59:30;;;;;;;0.03;0.03;;;;;;;;;;5009105;28;20066;-93
2024/01/16 08:01:56;;;;;;;0.00;0.00;;;;;;;;;;5037508;28;20102;-92
2024/01/16 08:04:23;;;;;;;0.10;0.10;;;;;;;;;;5014089;28;20049;-93
2024/01/16 08:06:49;;;;;;;0.00;0.00;;;;;;;;;;5015006;28;20022;-93
2024/01/16 08:09:14;;;;;;;0.00;0.00;;;;;;;;;;5042033;28;20037;-93
2024/01/16 08:11:40;;;;;;;0.10;0.10;;;;;;;;;;5048444;28;20037;-92
2024/01/16 08:14:06;;;;;;;0.10;0.10;;;;;;;;;;5042841;28;20061;-93
2024/01/16 08:16:32;;;;;;;0.10;0.10;;;;;;;;;;5014699;28;20094;-94
2024/01/16 08:18:58;;;;;;;0.00;0.00;;;;;;;;;;5046574;28;20026;-94
2024/01/16 08:21:24;;;;;;;0.08;0.08;;;;;;;;;;5044800;28;20040;-93
2024/01/16 08:23:50;;;;;;;0.10;0.10;;;;;;;;;;5049285;28;20030;-94
2024/01/16 08:26:16;;;;;;;0.10;0.10;;;;;;;;;;5049068;28;20041;-94
2024/01/16 08:28:42;;;;;;;0.10;0.10;;;;;;;;;;5029027;28;20026;-93
2024/01/16 08:31:08;;;;;;;0.10;0.10;;;;;;;;;;5037429;28;20215;-93
2024/01/16 08:33:34;;;;;;;0.10;0.10;;;;;;;;;;5046200;28;20026;-93
2024/01/16 08:36:00;;;;;;;0.00;0.00;;;;;;;;;;5018776;28;20033;-94
2024/01/16 08:38:26;;;;;;;0.00;0.00;;;;;;;;;;5046444;28;20029;-93
2024/01/16 08:40:52;;;;;;;0.10;0.10;;;;;;;;;;5009666;28;20034;-93
2024/01/16 08:43:18;;;;;;;0.00;0.00;;;;;;;;;;5041398;28;20029;-93
2024/01/16 08:45:44;;;;;;;0.00;0.00;;;;;;;;;;5039850;28;20046;-94
2024/01/16 08:48:12;;;;;;;0.05;0.05;;;;;;;;;;5017778;28;20026;-93
2024/01/16 08:50:38;;;;;;;0.00;0.00;;;;;;;;;;5042137;28;20089;-94
2024/01/16 08:53:04;;;;;;;0.10;0.10;;;;;;;;;;5028410;28;20022;-95
2024/01/16 08:55:30;;;;;;;0.10;0.10;;;;;;;;;;5047237;28;20029;-92
2024/01/16 08:57:56;;;;;;;0.10;0.10;;;;;;;;;;5046954;28;20025;-93
2024/01/16 09:00:22;;;;;;;0.10;0.10;;;;;;;;;;5035632;28;20089;-93
2024/01/16 09:02:48;;;;;;;0.00;0.00;;;;;;;;;;5045829;28;20037;-94
2024/01/16 09:05:14;;;;;;;0.10;0.10;;;;;;;;;;5017806;28;20053;-93
2024/01/16 09:07:40;;;;;;;0.10;0.10;;;;;;;;;;5029303;28;20029;-92
2024/01/16 09:10:07;;;;;;;0.10;0.10;;;;;;;;;;5009674;28;20029;-93
2024/01/16 09:12:33;;;;;;;0.00;0.00;;;;;;;;;;5032967;28;20021;-92
2024/01/16 09:14:59;;;;;;;0.00;0.00;;;;;;;;;;5042773;28;20057;-91
2024/01/16 09:17:26;;;;;;;0.10;0.10;;;;;;;;;;5042324;28;20093;-93
2024/01/16 09:19:52;;;;;;;0.00;0.00;;;;;;;;;;5018161;28;20164;-93
2024/01/16 09:22:18;;;;;;;0.10;0.10;;;;;;;;;;5026675;28;20018;-95
2024/01/16 09:24:44;;;;;;;0.00;0.00;;;;;;;;;;5041669;28;20037;-94
2024/01/16 09:27:10;;;;;;;0.03;0.03;;;;;;;;;;5023277;28;20029;-93
2024/01/16 09:29:36;;;;;;;0.00;0.00;;;;;;;;;;5009665;28;20133;-93
2024/01/16 09:32:02;;;;;;;0.10;0.10;;;;;;;;;;5038592;28;20025;-93
2024/01/16 09:34:28;;;;;;;0.00;0.00;;;;;;;;;;5007995;28;20027;-94
2024/01/16 09:36:58;;;;;;;0.00;0.00;;;;;;;;;;5014716;28;20041;-93
2024/01/16 09:39:24;;;;;;;0.00;0.00;;;;;;;;;;5039669;28;20060;-92
2024/01/16 09:41:50;;;;;;;0.10;0.10;;;;;;;;;;5043548;28;20049;-93
2024/01/16 09:44:16;;;;;;;0.05;0.05;;;;;;;;;;5022315;28;20034;-95
2024/01/16 09:46:48;;;;;;;0.10;0.10;;;;;;;;;;5041809;28;20024;-92
2024/01/16 09:49:15;;;;;;;0.00;0.00;;;;;;;;;;5048268;28;20073;-96
2024/01/16 09:51:43;;;;;;;0.00;0.00;;;;;;;;;;5020798;28;20026;-92
2024/01/16 09:54:09;;;;;;;0.00;0.00;;;;;;;;;;5029243;22;20025;-87
2024/01/16 09:56:38;;;;;;;0.10;0.10;;;2.20;99.90;;;;;;5011727;28;20034;-87
2024/01/16 09:59:05;;;;;;;0.08;0.08;;;1.90;99.90;;;;;;4997888;28;20018;-87
2024/01/16 10:01:32;;;;;;;0.05;0.05;;;1.90;99.90;;;;;;4997368;28;20029;-87
2024/01/16 10:03:59;;;;;;;0.00;0.00;;;;;;;;;;4992740;28;20031;-87
2024/01/16 10:06:27;;;;;;;0.10;0.10;;;2.10;99.90;;;;;;4995919;28;20033;-87
2024/01/16 10:08:53;;;;;;;0.03;0.03;;;;;;;;;;5000634;28;20056;-86
2024/01/16 10:11:19;;;;;;;0.00;0.00;;;;;;;;;;4998309;28;20139;-85
2024/01/16 10:13:45;;;;;;;0.08;0.08;;;;;;;;;;5004216;28;20032;-85
2024/01/16 10:16:11;;;;;;;0.00;0.00;;;;;;;;;;5011406;28;20028;-86
2024/01/16 10:18:37;;;;;;;0.10;0.10;;;;;;;;;;5002364;28;20440;-86
2024/01/16 10:21:04;;;;;;;0.10;0.10;;;;;;;;;;4985203;28;20128;-86
2024/01/16 10:23:32;;;;;;;0.03;0.03;;;2.60;99.90;;;;;;5000110;28;20029;-86
2024/01/16 10:26:11;;;;;;;0.10;0.10;;;2.50;99.90;;;;;;5012533;28;20652;-84
2024/01/16 10:28:42;;;;;;;0.08;0.08;;;2.40;99.90;;;;;;4997286;28;20053;-87
2024/01/16 10:31:09;;;;;;;0.10;0.10;;;2.40;99.90;;;;;;4996552;28;20415;-86
2024/01/16 10:33:37;;;;;;;0.00;0.00;;;;;;;;;;4993728;28;20481;-85
2024/01/16 10:36:20;;;;;;;0.10;0.10;;;2.50;99.90;;;;;;5026695;28;20022;-86
2024/01/16 10:38:46;;;;;;;0.10;0.10;;;2.30;99.90;;;;;;5002372;28;20057;-86
2024/01/16 10:41:13;;;;;;;0.00;0.00;;;2.40;99.90;;;;;;4993375;28;20112;-86
2024/01/16 10:43:39;;;;;;;0.00;0.00;;;;;;;;;;4995807;28;20037;-86
2024/01/16 10:46:09;;;;;;;0.10;0.10;;;2.50;99.90;;;;;;4992355;28;20030;-85
2024/01/16 10:48:35;;;;;;;0.00;0.00;;;;;;;;;;4995679;28;20034;-86
2024/01/16 10:51:01;;;;;;;0.08;0.08;;;;;;;;;;5009952;28;20034;-85
2024/01/16 10:53:31;;;;;;;0.10;0.10;;;2.60;99.90;;;;;;4998486;28;20113;-85
2024/01/16 10:55:58;;;;;;;0.10;0.10;;;;;;;;;;4996474;28;20393;-85
2024/01/16 10:58:29;;;;;;;0.10;0.10;;;;;;;;;;4996270;28;20018;-85
2024/01/16 11:00:57;;;;;;;0.10;0.10;;;2.60;99.90;;;;;;4993174;28;20524;-86
2024/01/16 11:03:38;;;;;;;0.00;0.00;;;2.60;99.90;;;;;;4999110;28;20400;-87
2024/01/16 11:06:06;;;;;;;0.00;0.00;;;2.50;99.90;;;;;;5021474;28;20044;-85
2024/01/16 11:08:33;;;;;;;0.03;0.03;;;;;;;;;;4993410;28;20206;-86
2024/01/16 11:11:03;;;;;;;0.10;0.10;;;2.50;99.90;;;;;;4992818;28;20503;-86
2024/01/16 11:13:30;;;;;;;;;;;2.50;99.90;;;;;;4995664;28;20477;-86
2024/01/16 11:15:56;;;;;;;0.10;0.10;;;;;;;;;;4995566;28;19992;-85
2024/01/16 11:18:22;;;;;;;0.10;0.10;;;;;;;;;;4999251;28;20060;-84
2024/01/16 11:20:48;;;;;;;0.10;0.10;;;;;;;;;;5004183;28;20434;-86
2024/01/16 11:23:15;;;;;;;0.00;0.00;;;;;;;;;;5014185;28;20167;-86
2024/01/16 11:25:41;;;;;;;0.10;0.10;;;;;;;;;;4993126;28;20037;-87
2024/01/16 11:28:13;;;;;;;0.10;0.10;;;2.30;99.90;;;;;;4992891;28;20030;-86
2024/01/16 11:30:40;;;;;;;0.10;0.10;;;2.40;99.90;;;;;;4992655;28;20037;-86
2024/01/16 11:33:06;;;;;;;0.10;0.10;;;;;;;;;;4996700;28;20058;-85
2024/01/16 11:35:39;;;;;;;0.10;0.10;;;2.40;99.90;;;;;;5002845;28;20112;-86
2024/01/16 11:38:08;;;;;;;0.08;0.08;;;2.40;99.90;;;;;;4992782;28;20390;-85
2024/01/16 11:40:34;;;;;;;0.10;0.10;;;;;;;;;;5003948;28;20022;-86
2024/01/16 11:43:31;;;;;;;0.00;0.00;;;2.50;99.90;;;;;;4997827;28;20044;-86
2024/01/16 11:45:58;;;;;;;0.00;0.00;;;2.50;99.90;;;;;;4998245;28;20113;-85
2024/01/16 11:48:24;;;;;;;0.10;0.10;;;;;;;;;;4998747;28;20030;-86
2024/01/16 11:50:50;;;;;;;0.10;0.10;;;;;;;;;;5002402;28;20511;-86
2024/01/16 11:53:42;;;;;;;0.10;0.10;;;2.60;99.90;;;;;;5003398;28;20526;-86
2024/01/16 11:56:12;;;;;;;0.10;0.10;;;2.70;99.90;;;;;;5016376;28;21539;-86
2024/01/16 11:58:37;;;;;;;;;;;2.70;99.90;;;;;;5000182;28;20057;-86
2024/01/16 12:01:05;;;;;;;0.03;0.03;;;2.70;99.90;;;;;;4997053;28;19948;-85
2024/01/16 12:03:31;;;;;;;0.10;0.10;;;2.70;99.90;;;;;;4998538;28;20069;-85
2024/01/16 12:06:02;;;;;;;0.10;0.10;;;2.60;99.90;;;;;;5009096;28;20025;-86
2024/01/16 12:08:28;;;;;;;0.10;0.10;;;;;;;;;;4999146;28;20396;-87
2024/01/16 12:10:54;;;;;;;0.00;0.00;;;;;;;;;;5011188;28;20018;-86
2024/01/16 12:13:20;;;;;;;0.03;0.03;;;;;;;;;;5008449;28;20480;-86
2024/01/16 12:15:46;;;;;;;0.10;0.10;;;2.60;99.90;;;;;;5003992;28;20069;-85
2024/01/16 12:18:18;;;;;;;0.10;0.10;;;2.50;99.90;;;;;;5020183;28;20018;-86
2024/01/16 12:20:44;;;;;;;0.10;0.10;;;;;;;;;;5010568;28;20034;-86
2024/01/16 12:23:10;;;;;;;0.10;0.10;;;;;;;;;;5020516;28;20290;-86
2024/01/16 12:25:37;;;;;;;0.10;0.10;;;2.40;99.90;;;;;;5019250;28;20143;-87
2024/01/16 12:28:04;;;;;;;0.10;0.10;;;2.40;99.90;;;;;;4994980;28;20041;-86
2024/01/16 12:30:31;;;;;;;0.10;0.10;;;2.30;99.90;;;;;;4992797;28;20481;-87
2024/01/16 12:33:06;;;;;;;0.10;0.10;;;2.20;99.90;;;;;;5014304;28;20477;-86
2024/01/16 12:35:32;;;;;;;0.00;0.00;;;;;;;;;;4992590;28;20030;-86
2024/01/16 12:38:02;;;;;;;0.00;0.00;;;2.40;99.90;;;;;;5015240;28;20033;-86
2024/01/16 12:40:29;;;;;;;0.00;0.00;;;2.40;99.90;;;;;;4991005;28;20072;-86
2024/01/16 12:42:55;;;;;;;0.10;0.10;;;;;;;;;;5000005;28;20145;-86
2024/01/16 12:45:22;;;;;;;0.10;0.10;;;1.00;99.90;;;;;;5011072;28;20476;-87
2024/01/16 12:47:54;;;;;;;0.10;0.10;;;2.50;99.90;;;;;;5000307;28;20464;-86
2024/01/16 12:50:23;;;;;;;0.10;0.10;;;2.60;99.90;;;;;;4991781;28;20440;-86
2024/01/16 12:53:10;;;;;;;0.10;0.10;;;2.60;99.90;;;;;;5003203;28;20030;-86
2024/01/16 12:55:37;;;;;;;0.10;0.10;;;2.50;99.90;;;;;;5004390;28;20037;-86
2024/01/16 12:58:17;;;;;;;0.10;0.10;;;2.70;99.90;;;;;;5002794;28;20049;-87
2024/01/16 13:00:47;;;;;;;0.10;0.10;;;2.50;99.90;;;;;;5020185;28;20071;-85
2024/01/16 13:03:20;;;;;;;0.10;0.10;;;2.60;99.90;;;;;;4996882;28;20471;-88
2024/01/16 13:05:54;;;;;;;0.10;0.10;;;2.50;99.90;;;;;;4996107;28;20392;-88
2024/01/16 13:08:20;;;;;;;0.00;0.00;;;;;;;;;;4996567;28;20049;-87
2024/01/16 13:10:47;;;;;;;0.08;0.08;;;2.60;99.90;;;;;;5008850;28;20403;-86
2024/01/16 13:13:17;;;;;;;0.10;0.10;;;2.60;99.90;;;;;;4996157;28;20022;-85
2024/01/16 13:15:44;;;;;;;0.17;0.17;;;2.50;99.90;;;;;;4996058;28;20030;-87
2024/01/16 13:18:24;;;;;;;0.10;0.10;;;2.50;99.90;;;;;;4994925;28;20113;-86
2024/01/16 13:20:51;;;;;;;0.10;0.10;;;2.50;99.90;;;;;;4997018;28;20480;-85
2024/01/16 13:23:17;;;;;;;0.10;0.10;;;;;;;;;;4996167;28;20524;-87
2024/01/16 13:25:45;;;;;;;0.05;0.05;;;2.50;99.90;;;;;;5013120;28;20026;-87
2024/01/16 13:28:11;;;;;;;0.10;0.10;;;;;;;;;;5013090;28;20093;-87
2024/01/16 13:30:36;;;;;;;0.10;0.10;;;2.60;99.90;;;;;;4997088;28;20026;-87
2024/01/16 13:33:04;;;;;;;0.10;0.10;;;2.40;99.90;;;;;;5012314;28;20182;-88
2024/01/16 13:35:30;;;;;;;0.10;0.10;;;;;;;;;;5010926;28;20042;-87
2024/01/16 13:37:55;;;;;;;0.03;0.03;;;2.50;99.90;;;;;;4995545;28;20080;-86
2024/01/16 13:40:22;;;;;;;0.10;0.10;;;;;;;;;;5024460;28;20092;-88
2024/01/16 13:42:48;;;;;;;0.10;0.10;;;;;;;;;;5002191;28;20664;-85
2024/01/16 13:45:14;;;;;;;0.00;0.00;;;;;;;;;;4996028;28;20029;-85
2024/01/16 13:47:40;;;;;;;0.00;0.00;;;;;;;;;;5020016;28;20040;-86
2024/01/16 13:50:07;;;;;;;0.10;0.10;;;2.60;99.90;;;;;;4998134;28;20045;-88
2024/01/16 13:52:36;;;;;;;0.10;0.10;;;2.50;99.90;;;;;;5007985;28;20044;-86
2024/01/16 13:55:05;;;;;;;0.10;0.10;;;;;;;;;;5006577;28;20125;-87
2024/01/16 13:57:32;;;;;;;0.10;0.10;;;2.50;99.90;;;;;;4995201;28;20058;-86
2024/01/16 13:59:58;;;;;;;0.10;0.10;;;;;;;;;;4995291;28;20033;-87
2024/01/16 14:02:24;;;;;;;0.10;0.10;;;;;;;;;;5011320;28;20120;-87
2024/01/16 14:04:50;;;;;;;0.10;0.10;;;;;;;;;;4999305;28;20515;-86
2024/01/16 14:07:16;;;;;;;0.10;0.10;;;;;;;;;;4998943;28;20147;-88
2024/01/16 14:09:42;;;;;;;0.00;0.00;;;;;;;;;;5004788;28;20037;-86
2024/01/16 14:12:08;;;;;;;0.10;0.10;;;;;;;;;;5008231;28;20125;-87
2024/01/16 14:14:34;;;;;;;0.10;0.10;;;;;;;;;;5010313;28;20473;-87
2024/01/16 14:17:01;;;;;;;0.00;0.00;;;;;;;;;;5003389;28;20136;-87
2024/01/16 14:19:29;;;;;;;0.10;0.10;;;;;;;;;;4995718;28;20026;-87
2024/01/16 14:22:12;;;;;;;0.10;0.10;;;2.40;99.90;;;;;;4996174;28;20340;-85